• Join FlightAware (Why Join?)
  • Login
  • US Flag 
01:55AM EST


 

Airport Tracker/Info


-or-


 

Live Flight TrackerFlight Track Log ✈ DAL981 ✈ 30-Apr-2013 ✈ KMSN - KMSP

Flight Track Log - Related Links

Times and Time Zones

All times are in EDT time to prevent confusion due to time zone crossing. See the DAL981 flight status page for this flight to view local times or setup timezone preferences in your user account.

Time Position Orientation Groundspeed Altitude Reporting Facility
EDT Latitude Longitude Course Direction KTS MPH feet Rate Location/Type
08:22AM 43.1000 -89.3617 288° West 162 186 2,900  Level Minneapolis Center
08:23AM 43.1181 -89.4400 288° West 230 265 6,300 3,120 Climbing Minneapolis Center
08:24AM 43.1569 -89.5233 303° West 255 293 9,400 2,160 Climbing Minneapolis Center
08:25AM 43.2530 -89.9351 288° West  Level FlightAware Approximate
08:25AM 43.1797 -89.6428 285° West 279 321 11,000  Level Chicago Center
08:26AM 43.2833 -90.0852 270° West  Level FlightAware Approximate
08:26AM 43.2175 -89.7467 297° West 310 357 11,000  Level Chicago Center
08:27AM 43.3085 -90.2361 288° West  Level FlightAware Approximate
08:27AM 43.2969 -89.8119 329° Northwest 331 381 13,600  Level Chicago Center
08:28AM 43.3311 -90.3316 288° West  Level FlightAware Approximate
08:28AM 43.3756 -89.8828 327° Northwest 331 381 16,300  Level Minneapolis Center
08:29AM 43.4217 -89.9972 299° West 332 382 19,100 2,280 Climbing Minneapolis Center
08:30AM 43.4492 -90.1244 287° West 343 395 21,000 1,380 Climbing Minneapolis Center
08:31AM 43.4669 -90.2611 280° West 351 404 22,000 480 Climbing Minneapolis Center
08:32AM 43.4853 -90.3933 281° West 355 409 22,000  Level Minneapolis Center
08:33AM 43.5042 -90.5247 281° West 355 409 22,000  Level Minneapolis Center
08:34AM 43.5239 -90.6553 282° West 353 406 22,000  Level Minneapolis Center
08:36AM 43.5419 -90.7886 281° West 356 410 22,000  Level Minneapolis Center
08:37AM 43.5628 -90.9275 282° West 374 430 22,000  Level Minneapolis Center
08:38AM 43.5869 -91.1086 280° West 399 459 22,000  Level Minneapolis Center
08:39AM 43.6081 -91.2575 281° West 402 463 22,000  Level Minneapolis Center
08:40AM 43.6283 -91.4075 281° West 402 463 22,000  Level Minneapolis Center
08:41AM 43.6481 -91.5575 280° West 403 464 22,000 -240 Level Minneapolis Center
08:42AM 43.6681 -91.7033 281° West 399 459 21,600 -540 Descending Minneapolis Center
08:43AM 43.6869 -91.8467 280° West 386 444 20,900 -1,020 Descending Minneapolis Center
08:44AM 43.7075 -92.0108 280° West 367 422 19,600 -960 Descending Minneapolis Center
08:45AM 43.7250 -92.1467 280° West 363 418 19,000 -300 Descending Minneapolis Center
08:46AM 43.7450 -92.3050 280° West 351 404 19,000  Level Minneapolis Center
08:47AM 43.7622 -92.4369 280° West 352 405 19,000 -300 Level Minneapolis Center
08:48AM 43.7828 -92.5925 280° West 350 403 18,400 -960 Descending Minneapolis Center
08:49AM 43.8486 -92.6906 313° West 350 403 17,100 -660 Descending Minneapolis Center
08:50AM 43.9183 -92.7833 316° Northwest 349 402 17,100 -540 Level Minneapolis Center
08:51AM 43.9772 -92.8653 315° West 340 391 16,100 -2,100 Descending Minneapolis Center
08:52AM 44.0706 -92.9953 315° West 342 394 12,400 -2,580 Descending Minneapolis Center
08:53AM 44.1372 -93.0889 315° West 338 389 10,300 -1,200 Descending Minneapolis Center
08:54AM 44.2019 -93.1803 315° West 333 383 10,000 -180 Descending Minneapolis Center
08:55AM 44.2900 -93.2172 343° North 360 414 10,000  Level Minneapolis Center
08:56AM 44.3919 -93.2056 North 365 420 10,000 -60 Level Minneapolis Center
08:57AM 44.4936 -93.1961 North 367 422 9,900 -420 Descending Minneapolis Center
08:58AM 44.5875 -93.1864 North 339 390 9,200 -960 Descending Minneapolis Center
08:59AM 44.6850 -93.2161 348° North 298 343 8,000 -600 Descending Minneapolis Center
09:01AM 44.7500 -93.2572 336° Northwest 300 345 8,000 -60 Level Minneapolis Center
09:02AM 44.8186 -93.3064 333° Northwest 269 310 7,900 -120 Descending Minneapolis Center
09:03AM 44.8544 -93.3800 304° West 230 265 7,800 -600 Descending Minneapolis Center
09:04AM 44.8853 -93.4706 296° West 213 245 6,700 -1,080 Descending Minneapolis Center
09:05AM 44.9161 -93.5344 304° West 204 235 5,700 -1,020 Descending Minneapolis Center